createdAt,value
2024-01-27T00:01:30.188Z,3.20
2024-01-27T00:03:58.112Z,3.07
2024-01-27T00:06:27.486Z,3.23
2024-01-27T00:08:55.497Z,3.40
2024-01-27T00:11:27.715Z,3.30
2024-01-27T00:13:55.998Z,3.97
2024-01-27T00:16:23.932Z,3.60
2024-01-27T00:18:51.976Z,3.30
2024-01-27T00:21:20.218Z,2.87
2024-01-27T00:23:49.794Z,3.67
2024-01-27T00:26:18.349Z,3.00
2024-01-27T00:28:46.288Z,2.17
2024-01-27T00:31:14.243Z,3.00
2024-01-27T00:33:42.331Z,3.80
2024-01-27T00:36:10.493Z,2.57
2024-01-27T00:38:39.838Z,3.17
2024-01-27T00:41:10.984Z,3.17
2024-01-27T00:43:38.882Z,3.50
2024-01-27T00:46:06.787Z,3.10
2024-01-27T00:48:34.920Z,4.03
2024-01-27T00:51:02.949Z,3.97
2024-01-27T00:53:29.888Z,2.43
2024-01-27T00:55:57.900Z,3.00
2024-01-27T00:58:27.288Z,2.17
2024-01-27T01:00:55.225Z,2.63
2024-01-27T01:03:23.317Z,3.77
2024-01-27T01:05:51.428Z,3.00
2024-01-27T01:08:19.391Z,3.13
2024-01-27T01:10:47.585Z,2.53
2024-01-27T01:13:15.622Z,4.47
2024-01-27T01:15:45.169Z,2.27
2024-01-27T01:18:13.194Z,2.67
2024-01-27T01:20:41.492Z,3.17
2024-01-27T01:23:09.759Z,2.73
2024-01-27T01:25:37.671Z,2.40
2024-01-27T01:28:06.137Z,3.07
2024-01-27T01:30:34.121Z,2.83
2024-01-27T01:33:03.644Z,2.50
2024-01-27T01:35:31.683Z,2.30
2024-01-27T01:37:59.627Z,2.30
2024-01-27T01:40:27.557Z,3.17
2024-01-27T01:42:55.481Z,2.33
2024-01-27T01:45:23.565Z,4.10
2024-01-27T01:47:51.777Z,2.97
2024-01-27T01:50:22.190Z,3.30
2024-01-27T01:52:51.241Z,3.17
2024-01-27T01:55:19.375Z,2.63
2024-01-27T01:57:47.834Z,3.37
2024-01-27T02:00:16.864Z,3.10
2024-01-27T02:02:46.604Z,3.77
2024-01-27T02:05:15.452Z,3.07
2024-01-27T02:07:44.799Z,3.77
2024-01-27T02:10:16.683Z,2.33
2024-01-27T02:12:45.151Z,2.97
2024-01-27T02:15:14.617Z,3.67
2024-01-27T02:17:42.541Z,5.50
2024-01-27T02:20:12.400Z,3.57
2024-01-27T02:22:40.387Z,3.73
2024-01-27T02:25:10.412Z,2.93
2024-01-27T02:27:38.422Z,3.93
2024-01-27T02:30:07.754Z,4.40
2024-01-27T02:32:35.761Z,3.97
2024-01-27T02:35:03.731Z,4.07
2024-01-27T02:37:31.758Z,4.33
2024-01-27T02:39:59.786Z,3.43
2024-01-27T02:42:29.223Z,3.50
2024-01-27T02:44:57.285Z,3.30
2024-01-27T02:47:25.254Z,3.97
2024-01-27T02:49:53.220Z,4.70
2024-01-27T02:52:21.774Z,2.63
2024-01-27T02:54:49.885Z,3.43
2024-01-27T02:57:18.232Z,4.07
2024-01-27T02:59:48.844Z,3.10
2024-01-27T03:02:17.104Z,2.97
2024-01-27T03:04:45.094Z,3.03
2024-01-27T03:07:13.019Z,3.50
2024-01-27T03:09:40.961Z,2.73
2024-01-27T03:12:09.854Z,3.50
2024-01-27T03:14:37.869Z,3.43
2024-01-27T03:17:08.227Z,3.57
2024-01-27T03:19:36.249Z,3.93
2024-01-27T03:22:04.326Z,3.20
2024-01-27T03:24:32.373Z,2.90
2024-01-27T03:27:00.344Z,3.43
2024-01-27T03:29:29.179Z,3.60
2024-01-27T03:31:57.258Z,4.47
2024-01-27T03:34:28.476Z,2.93
2024-01-27T03:36:56.618Z,2.87
2024-01-27T03:39:24.716Z,3.20
2024-01-27T03:41:52.740Z,2.80
2024-01-27T03:44:20.834Z,4.33
2024-01-27T03:46:49.465Z,3.23
2024-01-27T03:49:17.488Z,4.37
2024-01-27T03:51:46.867Z,3.93
2024-01-27T03:54:14.892Z,3.53
2024-01-27T03:56:43.329Z,3.37
2024-01-27T03:59:12.510Z,3.53
2024-01-27T04:01:40.480Z,3.37
2024-01-27T04:04:08.500Z,3.13
2024-01-27T04:06:39.753Z,3.20
2024-01-27T04:09:09.909Z,3.57
2024-01-27T04:11:38.262Z,3.13
2024-01-27T04:14:06.912Z,4.13
2024-01-27T04:16:34.927Z,3.97
2024-01-27T04:19:03.000Z,4.10
2024-01-27T04:21:31.170Z,3.13
2024-01-27T04:23:59.260Z,3.60
2024-01-27T04:26:28.571Z,3.57
2024-01-27T04:28:56.492Z,2.87
2024-01-27T04:31:24.432Z,3.17
2024-01-27T04:33:52.437Z,3.33
2024-01-27T04:36:28.533Z,3.77
2024-01-27T04:38:56.754Z,4.33
2024-01-27T04:41:24.670Z,3.70
2024-01-27T04:43:54.266Z,3.80
2024-01-27T04:46:22.285Z,3.30
2024-01-27T04:48:50.407Z,3.03
2024-01-27T04:51:18.489Z,3.80
2024-01-27T04:53:46.503Z,3.97
2024-01-27T04:56:14.899Z,4.13
2024-01-27T04:58:42.824Z,3.33
2024-01-27T05:01:12.128Z,3.57
2024-01-27T05:03:40.231Z,3.80
2024-01-27T05:06:10.473Z,3.23
2024-01-27T05:08:38.720Z,3.47
2024-01-27T05:11:06.801Z,4.57
2024-01-27T05:13:34.698Z,4.83
2024-01-27T05:16:02.645Z,4.37
2024-01-27T05:18:32.175Z,4.30
2024-01-27T05:21:00.241Z,3.77
2024-01-27T05:23:28.190Z,4.00
2024-01-27T05:25:56.125Z,3.73
2024-01-27T05:28:24.030Z,4.07
2024-01-27T05:30:51.902Z,3.57
2024-01-27T05:33:20.060Z,3.50
2024-01-27T05:35:49.415Z,3.43
2024-01-27T05:38:17.447Z,3.27
2024-01-27T05:40:46.392Z,4.20
2024-01-27T05:43:14.313Z,3.57
2024-01-27T05:45:42.242Z,3.83
2024-01-27T05:48:10.351Z,5.17
2024-01-27T05:50:38.416Z,4.47
2024-01-27T05:53:07.748Z,4.07
2024-01-27T05:55:35.970Z,4.03
2024-01-27T05:58:03.897Z,3.97
2024-01-27T06:00:31.840Z,4.57
2024-01-27T06:02:59.996Z,3.70
2024-01-27T06:05:27.986Z,3.60
2024-01-27T06:07:55.912Z,4.03
2024-01-27T06:10:25.896Z,4.33
2024-01-27T06:12:53.810Z,3.90
2024-01-27T06:15:21.786Z,4.27
2024-01-27T06:17:50.000Z,4.93
2024-01-27T06:20:19.814Z,4.60
2024-01-27T06:22:47.887Z,4.47
2024-01-27T06:25:17.721Z,4.47
2024-01-27T06:27:46.997Z,4.63
2024-01-27T06:30:16.522Z,4.67
2024-01-27T06:32:44.651Z,5.00
2024-01-27T06:35:12.751Z,5.20
2024-01-27T06:37:40.923Z,4.80
2024-01-27T06:40:10.287Z,5.23
2024-01-27T06:42:38.661Z,5.70
2024-01-27T06:45:08.920Z,5.27
2024-01-27T06:47:36.828Z,5.17
2024-01-27T06:50:05.009Z,5.23
2024-01-27T06:52:33.152Z,5.67
2024-01-27T06:55:01.132Z,4.73
2024-01-27T06:57:29.222Z,5.70
2024-01-27T06:59:57.718Z,4.40
2024-01-27T07:02:28.298Z,4.93
2024-01-27T07:04:56.287Z,5.83
2024-01-27T07:07:27.263Z,5.57
2024-01-27T07:09:56.603Z,5.80
2024-01-27T07:12:24.632Z,5.77
2024-01-27T07:14:56.483Z,5.77
2024-01-27T07:17:27.092Z,5.00
2024-01-27T07:19:55.237Z,5.60
2024-01-27T07:22:24.806Z,7.53
2024-01-27T07:24:53.192Z,5.37
2024-01-27T07:27:21.330Z,6.27
2024-01-27T07:29:49.534Z,5.90
2024-01-27T07:32:17.617Z,6.90
2024-01-27T07:34:47.076Z,5.97
2024-01-27T07:37:15.033Z,5.87
2024-01-27T07:39:42.971Z,5.50
2024-01-27T07:42:11.081Z,6.40
2024-01-27T07:44:39.101Z,6.17
2024-01-27T07:47:07.051Z,6.30
2024-01-27T07:49:35.078Z,6.80
2024-01-27T07:52:04.558Z,6.53
2024-01-27T07:54:34.013Z,6.63
2024-01-27T07:57:02.372Z,6.27
2024-01-27T07:59:30.314Z,7.00
2024-01-27T08:01:58.252Z,6.67
2024-01-27T08:04:26.286Z,6.90
2024-01-27T08:06:55.196Z,6.50
2024-01-27T08:09:24.662Z,8.20
2024-01-27T08:11:54.141Z,7.80
2024-01-27T08:14:23.326Z,8.10
2024-01-27T08:16:51.351Z,7.83
2024-01-27T08:19:21.826Z,8.10
2024-01-27T08:21:50.231Z,7.17
2024-01-27T08:24:18.421Z,8.10
2024-01-27T08:26:49.331Z,7.30
2024-01-27T08:29:17.317Z,7.87
2024-01-27T08:31:45.360Z,7.70
2024-01-27T08:34:15.050Z,8.03
2024-01-27T08:36:43.224Z,8.47
2024-01-27T08:39:13.176Z,9.80
2024-01-27T08:41:41.470Z,9.13
2024-01-27T08:44:10.760Z,9.77
2024-01-27T08:46:38.691Z,9.00
2024-01-27T08:49:06.678Z,8.83
2024-01-27T08:51:35.797Z,10.03
2024-01-27T08:54:04.411Z,9.27
2024-01-27T08:56:32.429Z,9.30
2024-01-27T08:59:00.396Z,8.40
2024-01-27T09:01:29.837Z,9.20
2024-01-27T09:03:58.031Z,9.83
2024-01-27T09:06:29.523Z,10.10
2024-01-27T09:08:59.529Z,8.53
2024-01-27T09:11:28.594Z,9.47
2024-01-27T09:13:56.556Z,8.87
2024-01-27T09:16:24.884Z,9.47
2024-01-27T09:18:54.506Z,8.83
2024-01-27T09:21:29.164Z,9.63
2024-01-27T09:23:57.421Z,8.37
2024-01-27T09:26:25.466Z,8.63
2024-01-27T09:28:55.446Z,9.33
2024-01-27T09:31:24.328Z,8.20
2024-01-27T09:33:54.504Z,8.47
2024-01-27T09:36:23.094Z,8.57
2024-01-27T09:38:51.423Z,8.60
2024-01-27T09:41:19.880Z,8.37
2024-01-27T09:43:48.650Z,8.70
2024-01-27T09:46:17.414Z,8.60
2024-01-27T09:48:46.588Z,7.40
2024-01-27T09:51:16.707Z,7.40
2024-01-27T09:53:44.701Z,8.20
2024-01-27T09:56:18.848Z,7.43
2024-01-27T09:58:47.833Z,7.57
2024-01-27T10:01:19.905Z,7.90
2024-01-27T10:03:49.430Z,6.97
2024-01-27T10:06:19.105Z,7.40
2024-01-27T10:08:55.178Z,7.17
2024-01-27T10:11:24.097Z,7.27
2024-01-27T10:13:59.526Z,7.03
2024-01-27T10:16:28.388Z,6.60
2024-01-27T10:19:03.509Z,5.67
2024-01-27T10:21:33.376Z,7.73
2024-01-27T10:24:02.671Z,5.83
2024-01-27T10:26:33.842Z,6.07
2024-01-27T10:29:02.759Z,6.37
2024-01-27T10:31:31.499Z,8.17
2024-01-27T10:34:02.164Z,5.87
2024-01-27T10:36:42.848Z,6.50
2024-01-27T10:39:22.559Z,6.13
2024-01-27T10:41:51.859Z,5.97
2024-01-27T10:44:21.455Z,6.40
2024-01-27T10:46:51.150Z,8.37
2024-01-27T10:49:20.262Z,6.27
2024-01-27T10:51:56.443Z,5.97
2024-01-27T10:54:27.648Z,6.37
2024-01-27T10:56:57.829Z,6.07
2024-01-27T10:59:29.019Z,6.47
2024-01-27T11:01:58.119Z,5.63
2024-01-27T11:04:28.003Z,5.53
2024-01-27T11:06:58.798Z,5.63
2024-01-27T11:09:27.559Z,6.30
2024-01-27T11:11:56.214Z,6.03
2024-01-27T11:14:24.314Z,6.17
2024-01-27T11:16:57.235Z,5.43
2024-01-27T11:19:25.665Z,5.47
2024-01-27T11:22:03.974Z,6.37
2024-01-27T11:24:32.065Z,5.30
2024-01-27T11:27:03.995Z,5.30
2024-01-27T11:29:33.776Z,5.90
2024-01-27T11:32:03.772Z,4.83
2024-01-27T11:34:43.898Z,5.27
2024-01-27T11:37:17.546Z,5.77
2024-01-27T11:39:45.888Z,6.20
2024-01-27T11:42:15.900Z,4.93
2024-01-27T11:44:44.556Z,5.40
2024-01-27T11:47:17.252Z,4.40
2024-01-27T11:49:46.043Z,4.83
2024-01-27T11:52:14.349Z,4.40
2024-01-27T11:54:43.656Z,4.50
2024-01-27T11:57:11.605Z,4.90
2024-01-27T11:59:39.591Z,4.57
2024-01-27T12:02:08.066Z,4.50
2024-01-27T12:04:36.853Z,4.27
2024-01-27T12:07:05.531Z,4.07
2024-01-27T12:09:33.767Z,3.70
2024-01-27T12:12:03.834Z,4.03
2024-01-27T12:14:40.446Z,4.27
2024-01-27T12:17:11.020Z,3.37
2024-01-27T12:19:39.289Z,4.23
2024-01-27T12:22:21.702Z,4.07
2024-01-27T12:24:49.733Z,3.50
2024-01-27T12:27:19.614Z,3.47
2024-01-27T12:29:49.862Z,3.47
2024-01-27T12:32:18.037Z,3.80
2024-01-27T12:34:48.955Z,3.70
2024-01-27T12:37:17.763Z,4.20
2024-01-27T12:39:45.916Z,3.20
2024-01-27T12:42:14.474Z,3.80
2024-01-27T12:44:43.788Z,3.50
2024-01-27T12:47:12.068Z,4.60
2024-01-27T12:49:40.101Z,3.43
2024-01-27T12:52:08.275Z,3.67
2024-01-27T12:54:36.376Z,3.90
2024-01-27T12:57:04.671Z,4.00
2024-01-27T12:59:33.098Z,4.20
2024-01-27T13:02:02.365Z,5.57
2024-01-27T13:04:30.563Z,3.63
2024-01-27T13:06:58.791Z,3.70
2024-01-27T13:09:26.757Z,3.67
2024-01-27T13:11:54.855Z,3.53
2024-01-27T13:14:23.709Z,4.00
2024-01-27T13:16:54.716Z,3.97
2024-01-27T13:19:24.134Z,4.80
2024-01-27T13:21:52.190Z,4.00
2024-01-27T13:24:21.059Z,4.47
2024-01-27T13:26:49.696Z,3.30
2024-01-27T13:29:17.668Z,3.80
2024-01-27T13:31:45.676Z,4.20
2024-01-27T13:34:13.860Z,4.10
2024-01-27T13:36:43.491Z,3.50
2024-01-27T13:39:11.659Z,3.70
2024-01-27T13:41:39.681Z,3.90
2024-01-27T13:44:07.800Z,4.23
2024-01-27T13:46:35.788Z,4.57
2024-01-27T13:49:03.985Z,3.70
2024-01-27T13:51:32.135Z,3.90
2024-01-27T13:54:01.572Z,3.87
2024-01-27T13:56:33.540Z,3.30
2024-01-27T13:59:01.531Z,3.80
2024-01-27T14:01:29.524Z,3.17
2024-01-27T14:03:57.567Z,4.30
2024-01-27T14:06:25.855Z,4.20
2024-01-27T14:08:53.923Z,4.17
2024-01-27T14:11:24.426Z,4.33
2024-01-27T14:13:52.368Z,3.73
2024-01-27T14:16:21.810Z,3.80
2024-01-27T14:18:50.194Z,4.60
2024-01-27T14:21:18.325Z,4.47
2024-01-27T14:23:46.503Z,4.00
2024-01-27T14:26:16.116Z,3.50
2024-01-27T14:28:46.936Z,3.67
2024-01-27T14:31:16.093Z,3.87
2024-01-27T14:33:44.487Z,4.43
2024-01-27T14:36:12.782Z,3.73
2024-01-27T14:38:41.862Z,4.40
2024-01-27T14:41:10.050Z,4.30
2024-01-27T14:43:39.440Z,4.53
2024-01-27T14:46:09.073Z,3.67
2024-01-27T14:48:37.314Z,6.47
2024-01-27T14:51:07.581Z,4.47
2024-01-27T14:53:35.549Z,4.17
2024-01-27T14:56:04.272Z,5.33
2024-01-27T14:58:32.157Z,3.10
2024-01-27T15:01:00.287Z,3.70
2024-01-27T15:03:29.752Z,4.27
2024-01-27T15:05:59.569Z,14.33
2024-01-27T15:08:28.826Z,10.63
2024-01-27T15:10:56.874Z,7.03
2024-01-27T15:13:25.620Z,4.27
2024-01-27T15:15:53.714Z,4.30
2024-01-27T15:18:23.253Z,4.27
2024-01-27T15:20:52.959Z,4.20
2024-01-27T15:23:24.226Z,3.93
2024-01-27T15:25:53.552Z,4.03
2024-01-27T15:28:21.619Z,4.37
2024-01-27T15:30:50.448Z,4.67
2024-01-27T15:33:18.745Z,4.10
2024-01-27T15:35:46.839Z,3.60
2024-01-27T15:38:16.141Z,3.87
2024-01-27T15:40:44.309Z,3.20
2024-01-27T15:43:12.372Z,3.80
2024-01-27T15:45:40.375Z,3.37
2024-01-27T15:48:11.244Z,3.70
2024-01-27T15:50:39.291Z,3.80
2024-01-27T15:53:09.229Z,4.33
2024-01-27T15:55:38.523Z,4.60
2024-01-27T15:58:06.487Z,4.30
2024-01-27T16:00:34.543Z,4.33
2024-01-27T16:03:02.637Z,3.80
2024-01-27T16:05:30.654Z,3.80
2024-01-27T16:07:58.590Z,4.30
2024-01-27T16:10:26.607Z,4.23
2024-01-27T16:12:56.049Z,5.60
2024-01-27T16:15:24.022Z,7.87
2024-01-27T16:17:52.769Z,9.10
2024-01-27T16:20:20.910Z,12.53
2024-01-27T16:22:48.854Z,14.33
2024-01-27T16:25:16.937Z,11.83
2024-01-27T16:27:44.946Z,11.33
2024-01-27T16:30:17.296Z,9.60
2024-01-27T16:32:45.535Z,11.32
2024-01-27T16:35:23.501Z,8.80
2024-01-27T16:37:52.227Z,7.70
2024-01-27T16:40:21.453Z,7.97
2024-01-27T16:42:49.415Z,7.33
2024-01-27T16:45:17.791Z,7.83
2024-01-27T16:47:45.801Z,7.83
2024-01-27T16:50:14.831Z,8.10
2024-01-27T16:52:44.165Z,7.37
2024-01-27T16:55:12.134Z,7.63
2024-01-27T16:57:40.555Z,7.30
2024-01-27T17:00:11.763Z,7.47
2024-01-27T17:02:40.010Z,5.83
2024-01-27T17:05:08.433Z,8.20
2024-01-27T17:07:36.618Z,7.93
2024-01-27T17:10:07.027Z,8.20
2024-01-27T17:12:37.135Z,9.67
2024-01-27T17:15:07.219Z,9.67
2024-01-27T17:17:36.742Z,8.97
2024-01-27T17:20:06.185Z,8.57
2024-01-27T17:22:34.239Z,7.40
2024-01-27T17:25:03.093Z,7.13
2024-01-27T17:27:32.770Z,6.20
2024-01-27T17:30:04.567Z,5.83
2024-01-27T17:32:32.761Z,6.43
2024-01-27T17:35:01.167Z,5.83
2024-01-27T17:37:29.307Z,5.00
2024-01-27T17:39:57.413Z,5.13
2024-01-27T17:42:25.735Z,5.10
2024-01-27T17:44:55.032Z,5.30
2024-01-27T17:47:23.004Z,5.83
2024-01-27T17:49:51.265Z,5.53
2024-01-27T17:52:19.481Z,5.80
2024-01-27T17:54:47.439Z,5.10
2024-01-27T17:57:15.415Z,5.17
2024-01-27T17:59:43.536Z,4.20
2024-01-27T18:02:12.766Z,5.27
2024-01-27T18:04:40.851Z,5.50
2024-01-27T18:07:08.920Z,4.83
2024-01-27T18:09:36.968Z,4.97
2024-01-27T18:12:05.520Z,4.43
2024-01-27T18:14:33.523Z,5.27
2024-01-27T18:17:01.506Z,4.57
2024-01-27T18:19:30.863Z,5.30
2024-01-27T18:22:04.125Z,5.73
2024-01-27T18:24:32.275Z,5.40
2024-01-27T18:27:01.095Z,5.27
2024-01-27T18:29:30.439Z,4.60
2024-01-27T18:31:59.772Z,4.60
2024-01-27T18:34:28.189Z,4.37
2024-01-27T18:36:57.580Z,4.23
2024-01-27T18:39:25.598Z,4.97
2024-01-27T18:41:53.520Z,4.83
2024-01-27T18:44:21.519Z,4.33
2024-01-27T18:46:49.527Z,3.77
2024-01-27T18:49:18.819Z,3.90
2024-01-27T18:51:46.977Z,5.37
2024-01-27T18:54:17.832Z,4.50
2024-01-27T18:56:46.475Z,4.13
2024-01-27T18:59:14.432Z,4.17
2024-01-27T19:01:42.376Z,4.23
2024-01-27T19:04:11.037Z,3.70
2024-01-27T19:06:39.168Z,3.33
2024-01-27T19:09:07.166Z,4.77
2024-01-27T19:11:36.461Z,3.27
2024-01-27T19:14:04.435Z,4.33
2024-01-27T19:16:32.373Z,4.30
2024-01-27T19:19:00.575Z,4.87
2024-01-27T19:21:29.218Z,5.63
2024-01-27T19:23:57.120Z,5.40
2024-01-27T19:26:25.175Z,5.67
2024-01-27T19:28:54.608Z,4.70
2024-01-27T19:31:22.596Z,5.53
2024-01-27T19:33:50.650Z,6.63
2024-01-27T19:36:18.684Z,6.60
2024-01-27T19:38:48.073Z,8.10
2024-01-27T19:41:19.374Z,6.97
2024-01-27T19:43:48.746Z,7.63
2024-01-27T19:46:18.282Z,7.70
2024-01-27T19:48:46.433Z,7.47
2024-01-27T19:51:14.569Z,7.47
2024-01-27T19:53:42.536Z,6.50
2024-01-27T19:56:10.609Z,6.70
2024-01-27T19:58:38.802Z,5.73
2024-01-27T20:01:06.881Z,5.80
2024-01-27T20:03:36.926Z,5.53
2024-01-27T20:06:05.981Z,6.33
2024-01-27T20:08:34.230Z,6.30
2024-01-27T20:11:02.187Z,6.10
2024-01-27T20:13:30.123Z,6.30
2024-01-27T20:15:58.141Z,5.87
2024-01-27T20:18:26.261Z,5.97
2024-01-27T20:20:55.615Z,6.20
2024-01-27T20:23:23.643Z,7.53
2024-01-27T20:25:52.453Z,6.13
2024-01-27T20:28:22.745Z,6.03
2024-01-27T20:30:50.783Z,6.20
2024-01-27T20:33:21.465Z,6.23
2024-01-27T20:35:51.285Z,6.70
2024-01-27T20:38:20.522Z,6.20
2024-01-27T20:40:49.357Z,6.23
2024-01-27T20:43:18.288Z,5.40
2024-01-27T20:45:46.357Z,5.43
2024-01-27T20:48:17.358Z,7.03
2024-01-27T20:50:45.811Z,6.90
2024-01-27T20:53:13.758Z,5.83
2024-01-27T20:55:43.642Z,6.17
2024-01-27T20:58:11.635Z,6.23
2024-01-27T21:00:39.932Z,6.50
2024-01-27T21:03:08.724Z,5.73
2024-01-27T21:05:36.760Z,6.57
2024-01-27T21:08:04.955Z,5.93
2024-01-27T21:10:32.848Z,6.60
2024-01-27T21:13:02.212Z,6.70
2024-01-27T21:15:30.257Z,7.23
2024-01-27T21:17:58.911Z,6.93
2024-01-27T21:20:26.927Z,7.27
2024-01-27T21:22:55.188Z,8.80
2024-01-27T21:25:23.106Z,11.27
2024-01-27T21:27:51.165Z,9.00
2024-01-27T21:30:20.551Z,7.20
2024-01-27T21:32:48.537Z,7.20
2024-01-27T21:35:16.746Z,7.37
2024-01-27T21:37:45.244Z,7.47
2024-01-27T21:40:13.922Z,7.97
2024-01-27T21:42:42.190Z,7.10
2024-01-27T21:45:11.096Z,7.20
2024-01-27T21:47:40.463Z,6.50
2024-01-27T21:50:09.400Z,6.70
2024-01-27T21:52:37.552Z,6.53
2024-01-27T21:55:06.541Z,7.87
2024-01-27T21:57:34.516Z,6.80
2024-01-27T22:00:02.742Z,5.83
2024-01-27T22:02:42.116Z,5.77
2024-01-27T22:05:11.635Z,6.80
2024-01-27T22:07:40.178Z,5.03
2024-01-27T22:10:09.814Z,5.80
2024-01-27T22:12:38.344Z,6.67
2024-01-27T22:15:08.408Z,5.10
2024-01-27T22:17:38.493Z,5.07
2024-01-27T22:20:10.949Z,4.93
2024-01-27T22:22:39.222Z,5.23
2024-01-27T22:25:10.617Z,5.03
2024-01-27T22:27:40.050Z,5.03
2024-01-27T22:30:11.112Z,5.23
2024-01-27T22:32:40.220Z,5.77
2024-01-27T22:35:10.670Z,5.07
2024-01-27T22:37:38.907Z,5.60
2024-01-27T22:40:09.062Z,5.50
2024-01-27T22:42:37.299Z,4.20
2024-01-27T22:45:07.118Z,4.50
2024-01-27T22:47:35.152Z,5.77
2024-01-27T22:50:05.081Z,5.03
2024-01-27T22:52:34.826Z,4.63
2024-01-27T22:55:03.733Z,5.43
2024-01-27T22:57:32.440Z,6.20
2024-01-27T23:00:00.531Z,6.63
2024-01-27T23:02:28.746Z,5.47
2024-01-27T23:04:57.159Z,5.47
2024-01-27T23:07:25.338Z,6.00
2024-01-27T23:09:55.040Z,6.20
2024-01-27T23:12:24.891Z,5.10
2024-01-27T23:14:53.061Z,5.50
2024-01-27T23:17:21.111Z,5.47
2024-01-27T23:19:49.344Z,5.13
2024-01-27T23:22:17.367Z,5.80
2024-01-27T23:24:45.473Z,6.10
2024-01-27T23:27:15.146Z,5.03
2024-01-27T23:29:43.362Z,5.63
2024-01-27T23:32:11.269Z,5.60
2024-01-27T23:34:39.525Z,5.77
2024-01-27T23:37:07.592Z,6.00
2024-01-27T23:39:35.647Z,5.73
2024-01-27T23:42:04.241Z,6.47
2024-01-27T23:44:33.538Z,7.03
2024-01-27T23:47:01.523Z,6.13
2024-01-27T23:49:29.585Z,6.57
2024-01-27T23:51:57.788Z,6.17
2024-01-27T23:54:25.796Z,5.60
2024-01-27T23:56:53.785Z,5.77
2024-01-27T23:59:21.753Z,6.00
